Time;durP1;ratioP1;P1;durP2;ratioP2;P2;SDS_P1;SDS_P2;PMS_P1;PMS_P2;Temp;Humidity;BMP_temperature;BMP_pressure;BME280_temperature;BME280_humidity;BME280_pressure;Samples;Min_cycle;Max_cycle;Signal;HPM_P1;HPM_P2
2023/07/17 00:01:40;;;;;;;2.50;2.27;;;;;;;;;;5036169;28;20411;-69
2023/07/17 00:04:06;;;;;;;2.03;1.93;;;;;;;;;;5036063;28;20420;-69
2023/07/17 00:06:32;;;;;;;2.03;1.40;;;;;;;;;;5035396;28;20496;-70
2023/07/17 00:08:58;;;;;;;3.83;1.70;;;;;;;;;;5036011;28;20426;-69
2023/07/17 00:11:24;;;;;;;2.17;1.87;;;;;;;;;;5036313;28;20423;-69
2023/07/17 00:13:50;;;;;;;2.20;2.10;;;;;;;;;;5035932;28;20411;-70
2023/07/17 00:16:16;;;;;;;3.40;2.00;;;;;;;;;;5035969;28;20419;-70
2023/07/17 00:18:42;;;;;;;2.03;2.00;;;;;;;;;;5036182;28;20415;-70
2023/07/17 00:21:09;;;;;;;4.77;1.90;;;;;;;;;;5035883;28;20419;-70
2023/07/17 00:23:35;;;;;;;4.80;1.90;;;;;;;;;;5036107;28;20451;-69
2023/07/17 00:26:02;;;;;;;1.97;1.63;;;;;;;;;;5035761;28;20450;-70
2023/07/17 00:28:28;;;;;;;2.20;1.73;;;;;;;;;;5035778;28;20425;-69
2023/07/17 00:30:54;;;;;;;3.37;2.27;;;;;;;;;;5035943;28;20479;-70
2023/07/17 00:33:19;;;;;;;3.43;2.20;;;;;;;;;;5035946;28;20419;-69
2023/07/17 00:35:46;;;;;;;3.30;1.43;;;;;;;;;;5035514;28;20481;-69
2023/07/17 00:38:12;;;;;;;1.83;1.73;;;;;;;;;;5035718;28;20886;-70
2023/07/17 00:40:41;;;;;;;2.83;1.70;;;;;;;;;;5035520;28;20410;-69
2023/07/17 00:43:13;;;;;;;2.20;2.10;;;;;;;;;;5035446;28;20821;-70
2023/07/17 00:45:40;;;;;;;2.20;1.80;;;;;;;;;;5035553;28;20461;-69
2023/07/17 00:48:06;;;;;;;4.07;1.97;;;;;;;;;;5035528;28;20412;-69
2023/07/17 00:50:32;;;;;;;1.40;1.40;;;;;;;;;;5035538;28;20490;-70
2023/07/17 00:52:58;;;;;;;2.70;2.60;;;;;;;;;;5035510;28;20463;-69
2023/07/17 00:55:24;;;;;;;1.87;1.77;;;;;;;;;;5035250;28;20466;-69
2023/07/17 00:57:51;;;;;;;4.90;1.93;;;;;;;;;;5035154;28;20458;-70
2023/07/17 01:00:17;;;;;;;3.83;1.67;;;;;;;;;;5035076;28;20454;-69
2023/07/17 01:02:44;;;;;;;3.23;2.30;;;;;;;;;;5035111;28;20965;-70
2023/07/17 01:05:10;;;;;;;2.37;1.77;;;;;;;;;;5035379;28;20424;-70
2023/07/17 01:07:39;;;;;;;3.70;1.70;;;;;;;;;;5035321;28;20431;-70
2023/07/17 01:10:05;;;;;;;1.90;1.80;;;;;;;;;;5035071;28;20833;-69
2023/07/17 01:12:32;;;;;;;3.13;2.00;;;;;;;;;;5034888;28;20449;-70
2023/07/17 01:14:58;;;;;;;1.73;1.63;;;;;;;;;;5034856;28;20420;-69
2023/07/17 01:17:24;;;;;;;2.47;2.30;;;;;;;;;;5033966;28;20415;-70
2023/07/17 01:19:50;;;;;;;4.40;2.27;;;;;;;;;;5034764;28;20416;-69
2023/07/17 01:22:16;;;;;;;2.73;1.83;;;;;;;;;;5034814;28;20425;-70
2023/07/17 01:24:42;;;;;;;2.37;2.17;;;;;;;;;;5034742;28;20485;-69
2023/07/17 01:27:07;;;;;;;2.50;2.30;;;;;;;;;;5034893;28;20339;-70
2023/07/17 01:29:33;;;;;;;5.40;1.90;;;;;;;;;;5034694;28;20995;-70
2023/07/17 01:31:59;;;;;;;3.27;1.80;;;;;;;;;;5034806;28;20420;-70
2023/07/17 01:34:25;;;;;;;3.33;2.07;;;;;;;;;;5034539;28;20419;-69
2023/07/17 01:36:51;;;;;;;8.47;2.13;;;;;;;;;;5035464;28;20427;-70
2023/07/17 01:39:17;;;;;;;2.20;1.90;;;;;;;;;;5034606;28;20204;-69
2023/07/17 01:41:43;;;;;;;2.87;2.67;;;;;;;;;;5034452;28;20435;-69
2023/07/17 01:44:09;;;;;;;4.30;1.80;;;;;;;;;;5034175;28;20414;-69
2023/07/17 01:46:35;;;;;;;5.83;2.07;;;;;;;;;;5034579;28;20423;-70
2023/07/17 01:49:01;;;;;;;3.83;2.50;;;;;;;;;;5034195;28;20407;-70
2023/07/17 01:51:27;;;;;;;2.40;2.20;;;;;;;;;;5034574;28;20780;-69
2023/07/17 01:53:53;;;;;;;2.17;2.10;;;;;;;;;;5033870;28;20467;-70
2023/07/17 01:56:19;;;;;;;2.30;2.20;;;;;;;;;;5033759;28;20413;-70
2023/07/17 01:58:45;;;;;;;4.63;1.67;;;;;;;;;;5034572;28;20501;-69
2023/07/17 02:01:11;;;;;;;9.00;2.30;;;;;;;;;;5033922;28;20442;-70
2023/07/17 02:03:37;;;;;;;4.97;1.70;;;;;;;;;;5034272;28;20415;-69
2023/07/17 02:06:03;;;;;;;3.60;1.60;;;;;;;;;;5034170;28;20418;-70
2023/07/17 02:08:29;;;;;;;2.30;2.17;;;;;;;;;;5033970;28;20431;-69
2023/07/17 02:10:55;;;;;;;6.90;1.67;;;;;;;;;;5033991;28;20552;-69
2023/07/17 02:13:21;;;;;;;2.97;2.50;;;;;;;;;;5034312;28;20887;-70
2023/07/17 02:15:47;;;;;;;2.00;2.00;;;;;;;;;;5033810;28;20430;-69
2023/07/17 02:18:13;;;;;;;2.20;1.97;;;;;;;;;;5034049;28;20458;-69
2023/07/17 02:20:39;;;;;;;2.57;2.00;;;;;;;;;;5034516;28;20455;-69
2023/07/17 02:23:05;;;;;;;4.87;2.00;;;;;;;;;;5033678;28;20443;-70
2023/07/17 02:25:31;;;;;;;1.90;1.80;;;;;;;;;;5033938;28;20831;-70
2023/07/17 02:27:57;;;;;;;6.43;1.80;;;;;;;;;;5033724;28;20422;-70
2023/07/17 02:30:23;;;;;;;2.87;2.37;;;;;;;;;;5033120;28;20532;-70
2023/07/17 02:32:49;;;;;;;2.40;1.60;;;;;;;;;;5033738;28;20415;-69
2023/07/17 02:35:15;;;;;;;2.77;1.37;;;;;;;;;;5034054;28;20895;-70
2023/07/17 02:37:41;;;;;;;11.37;2.40;;;;;;;;;;5033464;28;20422;-70
2023/07/17 02:40:10;;;;;;;2.00;1.80;;;;;;;;;;5033571;28;20544;-70
2023/07/17 02:42:37;;;;;;;2.60;2.30;;;;;;;;;;5033332;28;20442;-69
2023/07/17 02:45:03;;;;;;;7.10;2.07;;;;;;;;;;5033510;28;20427;-70
2023/07/17 02:47:29;;;;;;;5.03;2.13;;;;;;;;;;5033476;28;20410;-69
2023/07/17 02:49:55;;;;;;;3.40;2.23;;;;;;;;;;5033383;28;20478;-70
2023/07/17 02:52:21;;;;;;;4.10;1.87;;;;;;;;;;5048280;28;20841;-69
2023/07/17 02:54:48;;;;;;;2.63;2.00;;;;;;;;;;5033499;28;20527;-69
2023/07/17 02:57:16;;;;;;;4.63;1.90;;;;;;;;;;5033208;28;20448;-70
2023/07/17 02:59:42;;;;;;;1.97;1.77;;;;;;;;;;5033728;28;20422;-69
2023/07/17 03:02:08;;;;;;;5.63;2.20;;;;;;;;;;5033577;28;20407;-70
2023/07/17 03:04:34;;;;;;;4.13;2.07;;;;;;;;;;5033507;28;20423;-69
2023/07/17 03:07:00;;;;;;;3.60;2.20;;;;;;;;;;5033357;28;20472;-69
2023/07/17 03:09:27;;;;;;;7.17;2.00;;;;;;;;;;5033130;28;20554;-69
2023/07/17 03:11:53;;;;;;;6.07;2.07;;;;;;;;;;5033288;28;20466;-69
2023/07/17 03:14:19;;;;;;;3.90;1.97;;;;;;;;;;5033125;28;20435;-69
2023/07/17 03:16:45;;;;;;;6.53;2.30;;;;;;;;;;5033079;28;20502;-69
2023/07/17 03:19:11;;;;;;;2.67;2.10;;;;;;;;;;5033318;28;20420;-70
2023/07/17 03:21:37;;;;;;;3.03;2.77;;;;;;;;;;5033260;28;20450;-70
2023/07/17 03:24:04;;;;;;;6.43;2.57;;;;;;;;;;5033823;28;20506;-70
2023/07/17 03:26:30;;;;;;;5.93;2.00;;;;;;;;;;5032995;28;20419;-70
2023/07/17 03:28:56;;;;;;;2.30;2.30;;;;;;;;;;5032907;28;20423;-70
2023/07/17 03:31:22;;;;;;;4.13;2.90;;;;;;;;;;5033198;28;20514;-70
2023/07/17 03:33:47;;;;;;;2.40;2.20;;;;;;;;;;5032838;28;20415;-69
2023/07/17 03:36:13;;;;;;;5.93;2.00;;;;;;;;;;5033105;28;20427;-69
2023/07/17 03:38:40;;;;;;;2.17;2.03;;;;;;;;;;5032884;28;20423;-70
2023/07/17 03:41:06;;;;;;;2.00;1.83;;;;;;;;;;5033968;28;20506;-69
2023/07/17 03:43:32;;;;;;;2.87;2.67;;;;;;;;;;5036470;28;20419;-69
2023/07/17 03:45:58;;;;;;;6.67;2.80;;;;;;;;;;5036993;28;20434;-69
2023/07/17 03:48:24;;;;;;;3.20;2.00;;;;;;;;;;5052591;28;20463;-69
2023/07/17 03:50:50;;;;;;;7.17;3.07;;;;;;;;;;5036409;28;20478;-70
2023/07/17 03:53:16;;;;;;;10.50;2.97;;;;;;;;;;5036315;28;20467;-69
2023/07/17 03:55:42;;;;;;;6.80;2.53;;;;;;;;;;5036619;28;20457;-69
2023/07/17 03:58:08;;;;;;;20.83;2.70;;;;;;;;;;5036326;28;20403;-70
2023/07/17 04:00:34;;;;;;;3.17;2.27;;;;;;;;;;5036247;28;20415;-70
2023/07/17 04:03:00;;;;;;;9.37;2.47;;;;;;;;;;5036871;28;20411;-71
2023/07/17 04:05:26;;;;;;;3.80;2.57;;;;;;;;;;5036441;28;20419;-69
2023/07/17 04:07:52;;;;;;;2.03;1.93;;;;;;;;;;5036106;28;20917;-69
2023/07/17 04:10:18;;;;;;;4.40;1.80;;;;;;;;;;5036186;28;20810;-68
2023/07/17 04:12:44;;;;;;;4.20;2.00;;;;;;;;;;5036069;28;20400;-65
2023/07/17 04:15:10;;;;;;;8.50;2.33;;;;;;;;;;5036308;28;20423;-66
2023/07/17 04:17:36;;;;;;;4.10;1.67;;;;;;;;;;5036696;28;20415;-66
2023/07/17 04:20:02;;;;;;;3.97;1.80;;;;;;;;;;5036234;28;20426;-69
2023/07/17 04:22:28;;;;;;;3.60;1.83;;;;;;;;;;5036243;28;20408;-69
2023/07/17 04:24:55;;;;;;;5.17;2.00;;;;;;;;;;5036233;28;20451;-70
2023/07/17 04:27:21;;;;;;;2.07;1.90;;;;;;;;;;5035808;28;20412;-69
2023/07/17 04:29:46;;;;;;;2.60;2.30;;;;;;;;;;5035660;28;20487;-69
2023/07/17 04:32:13;;;;;;;3.37;2.40;;;;;;;;;;5035791;28;20428;-69
2023/07/17 04:34:38;;;;;;;3.57;2.37;;;;;;;;;;5035994;28;20511;-70
2023/07/17 04:37:04;;;;;;;2.83;1.83;;;;;;;;;;5035448;28;20459;-70
2023/07/17 04:39:30;;;;;;;2.40;2.20;;;;;;;;;;5035733;28;20481;-69
2023/07/17 04:41:56;;;;;;;2.20;2.10;;;;;;;;;;5035837;28;20414;-69
2023/07/17 04:44:22;;;;;;;2.30;2.20;;;;;;;;;;5035751;28;20423;-70
2023/07/17 04:46:48;;;;;;;6.30;2.40;;;;;;;;;;5035855;28;20838;-70
2023/07/17 04:49:14;;;;;;;2.60;2.40;;;;;;;;;;5035934;28;20427;-70
2023/07/17 04:51:40;;;;;;;3.57;2.10;;;;;;;;;;5035472;28;20419;-69
2023/07/17 04:54:06;;;;;;;10.13;2.43;;;;;;;;;;5035189;28;20521;-69
2023/07/17 04:56:32;;;;;;;2.20;2.03;;;;;;;;;;5035311;28;20423;-70
2023/07/17 04:58:59;;;;;;;4.23;2.60;;;;;;;;;;5035404;28;20422;-70
2023/07/17 05:01:24;;;;;;;3.17;2.10;;;;;;;;;;5035454;28;20427;-69
2023/07/17 05:03:50;;;;;;;3.60;2.10;;;;;;;;;;5035135;28;20426;-70
2023/07/17 05:06:16;;;;;;;5.13;2.00;;;;;;;;;;5035031;28;20428;-69
2023/07/17 05:08:42;;;;;;;2.57;2.37;;;;;;;;;;5035431;28;20404;-70
2023/07/17 05:11:09;;;;;;;13.57;2.83;;;;;;;;;;5035000;28;20874;-70
2023/07/17 05:13:35;;;;;;;4.47;2.20;;;;;;;;;;5035102;28;20417;-69
2023/07/17 05:16:01;;;;;;;3.27;2.90;;;;;;;;;;5034767;28;20862;-69
2023/07/17 05:18:27;;;;;;;6.07;2.70;;;;;;;;;;5034561;28;20434;-70
2023/07/17 05:20:53;;;;;;;2.50;2.40;;;;;;;;;;5034628;28;20481;-69
2023/07/17 05:23:19;;;;;;;5.60;2.23;;;;;;;;;;5034943;28;20418;-69
2023/07/17 05:26:05;;;;;;;4.93;2.40;;;;;;;;;;5034659;28;20488;-70
2023/07/17 05:28:31;;;;;;;9.00;2.27;;;;;;;;;;5034830;28;20864;-69
2023/07/17 05:30:57;;;;;;;4.77;2.50;;;;;;;;;;5034748;28;20474;-69
2023/07/17 05:33:24;;;;;;;4.37;2.17;;;;;;;;;;5034749;28;20434;-69
2023/07/17 05:35:50;;;;;;;5.17;1.83;;;;;;;;;;5034659;28;20423;-69
2023/07/17 05:38:16;;;;;;;2.37;2.27;;;;;;;;;;5034467;28;20415;-69
2023/07/17 05:40:43;;;;;;;3.30;1.93;;;;;;;;;;5034400;28;20510;-69
2023/07/17 05:43:09;;;;;;;4.87;2.83;;;;;;;;;;5034266;28;20415;-70
2023/07/17 05:45:35;;;;;;;6.97;2.60;;;;;;;;;;5034862;28;20466;-69
2023/07/17 05:48:01;;;;;;;2.20;2.00;;;;;;;;;;5034539;28;20422;-69
2023/07/17 05:50:27;;;;;;;2.20;2.00;;;;;;;;;;5034124;28;20467;-69
2023/07/17 05:52:53;;;;;;;3.37;2.10;;;;;;;;;;5033910;28;20459;-69
2023/07/17 05:55:19;;;;;;;7.03;2.20;;;;;;;;;;5033982;28;20511;-69
2023/07/17 05:57:45;;;;;;;6.80;2.73;;;;;;;;;;5034404;28;20502;-69
2023/07/17 06:00:12;;;;;;;2.70;2.20;;;;;;;;;;5033945;28;20431;-69
2023/07/17 06:02:39;;;;;;;3.63;2.43;;;;;;;;;;5033971;28;20430;-69
2023/07/17 06:05:05;;;;;;;2.67;2.47;;;;;;;;;;5033339;28;20760;-69
2023/07/17 06:07:31;;;;;;;13.00;2.20;;;;;;;;;;5034049;28;20431;-69
2023/07/17 06:13:00;;;;;;;6.43;2.80;;;;;;;;;;5033454;28;20399;-69
2023/07/17 06:15:26;;;;;;;5.73;2.60;;;;;;;;;;5033736;28;20404;-69
2023/07/17 06:17:52;;;;;;;4.83;1.57;;;;;;;;;;5034422;28;20446;-69
2023/07/17 06:20:20;;;;;;;5.97;2.53;;;;;;;;;;5033359;28;20419;-69
2023/07/17 06:22:46;;;;;;;2.40;2.30;;;;;;;;;;5033309;28;20557;-69
2023/07/17 06:25:12;;;;;;;2.40;2.20;;;;;;;;;;5033212;28;20883;-69
2023/07/17 06:27:39;;;;;;;2.90;2.70;;;;;;;;;;5033273;28;20578;-69
2023/07/17 06:30:05;;;;;;;6.47;2.47;;;;;;;;;;5033259;28;20478;-69
2023/07/17 06:32:31;;;;;;;5.50;2.70;;;;;;;;;;5033431;28;20465;-69
2023/07/17 06:34:57;;;;;;;9.83;3.43;;;;;;;;;;5033335;28;20931;-69
2023/07/17 06:37:23;;;;;;;4.00;2.70;;;;;;;;;;5033127;28;20415;-69
2023/07/17 06:39:49;;;;;;;3.77;2.60;;;;;;;;;;5033242;28;20829;-69
2023/07/17 06:42:15;;;;;;;6.18;2.60;;;;;;;;;;5032633;28;20460;-69
2023/07/17 06:44:42;;;;;;;3.03;2.30;;;;;;;;;;5033486;28;20180;-69
2023/07/17 06:47:08;;;;;;;6.07;2.67;;;;;;;;;;5032916;28;20439;-69
2023/07/17 06:49:34;;;;;;;5.60;2.97;;;;;;;;;;5032965;28;20532;-69
2023/07/17 06:52:00;;;;;;;5.10;2.80;;;;;;;;;;5033147;28;20506;-69
2023/07/17 06:54:26;;;;;;;2.50;2.40;;;;;;;;;;5032954;28;20451;-69
2023/07/17 06:56:52;;;;;;;5.60;2.90;;;;;;;;;;5032834;28;20427;-69
2023/07/17 06:59:18;;;;;;;2.90;2.70;;;;;;;;;;5033140;28;20418;-69
2023/07/17 07:01:44;;;;;;;4.00;2.37;;;;;;;;;;5033839;28;20411;-69
2023/07/17 07:04:10;;;;;;;6.23;2.63;;;;;;;;;;5032943;28;20439;-69
2023/07/17 07:06:36;;;;;;;4.63;3.27;;;;;;;;;;5032881;28;20786;-69
2023/07/17 07:09:03;;;;;;;6.37;2.50;;;;;;;;;;5032846;28;20403;-69
2023/07/17 07:11:29;;;;;;;5.80;2.70;;;;;;;;;;5033094;28;20525;-69
2023/07/17 07:13:55;;;;;;;7.53;2.47;;;;;;;;;;5033449;28;20452;-69
2023/07/17 07:16:21;;;;;;;9.40;2.33;;;;;;;;;;5034078;28;20789;-69
2023/07/17 07:18:46;;;;;;;4.10;2.57;;;;;;;;;;5036823;28;20420;-69
2023/07/17 07:21:12;;;;;;;3.10;2.90;;;;;;;;;;5036740;28;20472;-69
2023/07/17 07:23:38;;;;;;;7.00;2.40;;;;;;;;;;5036741;28;20415;-69
2023/07/17 07:26:04;;;;;;;10.00;2.33;;;;;;;;;;5036597;28;20474;-69
2023/07/17 07:28:30;;;;;;;5.10;2.27;;;;;;;;;;5036960;28;20427;-69
2023/07/17 07:30:57;;;;;;;4.77;2.90;;;;;;;;;;5036793;28;20843;-69
2023/07/17 07:33:24;;;;;;;3.50;3.00;;;;;;;;;;5036631;28;20496;-69
2023/07/17 07:35:50;;;;;;;5.70;2.63;;;;;;;;;;5036359;28;20487;-69
2023/07/17 07:38:16;;;;;;;3.33;2.30;;;;;;;;;;5037033;28;20427;-69
2023/07/17 07:40:41;;;;;;;3.23;2.23;;;;;;;;;;5036711;28;20793;-69
2023/07/17 07:43:07;;;;;;;5.13;2.97;;;;;;;;;;5036562;28;20471;-69
2023/07/17 07:45:33;;;;;;;2.87;2.40;;;;;;;;;;5036773;28;20430;-69
2023/07/17 07:47:59;;;;;;;6.10;2.50;;;;;;;;;;5036303;28;20506;-69
2023/07/17 07:50:25;;;;;;;6.50;2.60;;;;;;;;;;5036694;28;20585;-69
2023/07/17 07:52:51;;;;;;;2.60;2.40;;;;;;;;;;5035983;28;20455;-69
2023/07/17 07:55:17;;;;;;;5.00;2.90;;;;;;;;;;5036138;28;20474;-69
2023/07/17 07:57:43;;;;;;;2.57;2.47;;;;;;;;;;5036052;28;20764;-69
2023/07/17 08:00:10;;;;;;;4.23;3.27;;;;;;;;;;5036503;28;20415;-61
2023/07/17 08:02:35;;;;;;;6.90;3.23;;;;;;;;;;5036258;28;20875;-69
2023/07/17 08:05:03;;;;;;;3.40;3.20;;;;;;;;;;5036079;28;20981;-68
2023/07/17 08:07:29;;;;;;;3.13;2.60;;;;;;;;;;5051246;28;20519;-69
2023/07/17 08:09:55;;;;;;;4.83;2.57;;;;;;;;;;5035862;28;20573;-69
2023/07/17 08:12:21;;;;;;;3.50;3.20;;;;;;;;;;5036180;28;20407;-69
2023/07/17 08:14:46;;;;;;;4.83;3.83;;;;;;;;;;5036201;28;20416;-69
2023/07/17 08:17:13;;;;;;;8.90;3.07;;;;;;;;;;5035390;28;20430;-69
2023/07/17 08:22:42;;;;;;;10.87;4.50;;;;;;;;;;5035678;28;20457;-69
2023/07/17 08:25:08;;;;;;;6.70;3.80;;;;;;;;;;5035650;28;20812;-69
2023/07/17 08:27:34;;;;;;;5.20;3.73;;;;;;;;;;5035740;28;20770;-69
2023/07/17 08:33:04;;;;;;;5.97;3.70;;;;;;;;;;5035555;28;20934;-69
2023/07/17 08:35:30;;;;;;;6.30;3.73;;;;;;;;;;5035994;28;20465;-69
2023/07/17 08:37:56;;;;;;;7.83;3.20;;;;;;;;;;5035650;28;20511;-69
2023/07/17 08:40:23;;;;;;;3.67;3.47;;;;;;;;;;5035684;28;20991;-69
2023/07/17 08:42:50;;;;;;;7.50;3.97;;;;;;;;;;5035567;28;20506;-69
2023/07/17 08:45:16;;;;;;;5.77;4.23;;;;;;;;;;5036065;28;20498;-69
2023/07/17 08:47:42;;;;;;;4.70;3.70;;;;;;;;;;5035244;28;20411;-69
2023/07/17 08:50:09;;;;;;;3.60;3.27;;;;;;;;;;5035062;28;20458;-69
2023/07/17 08:52:35;;;;;;;10.90;3.37;;;;;;;;;;5035171;28;20486;-69
2023/07/17 08:55:01;;;;;;;4.43;3.27;;;;;;;;;;5035443;28;20411;-69
2023/07/17 08:57:27;;;;;;;3.90;3.70;;;;;;;;;;5034920;28;20430;-69
2023/07/17 08:59:54;;;;;;;9.10;3.47;;;;;;;;;;5035042;28;20447;-69
2023/07/17 09:02:20;;;;;;;7.20;4.60;;;;;;;;;;5035279;28;20415;-69
2023/07/17 09:04:46;;;;;;;4.93;4.23;;;;;;;;;;5035252;28;20422;-69
2023/07/17 09:07:12;;;;;;;3.63;3.33;;;;;;;;;;5034956;28;20918;-69
2023/07/17 09:09:38;;;;;;;4.30;3.87;;;;;;;;;;5034911;28;20505;-69
2023/07/17 09:12:11;;;;;;;5.93;4.30;;;;;;;;;;5034924;28;20415;-69
2023/07/17 09:14:37;;;;;;;5.50;3.60;;;;;;;;;;5035420;28;20436;-69
2023/07/17 09:17:04;;;;;;;15.30;3.87;;;;;;;;;;5034916;28;20453;-69
2023/07/17 09:19:31;;;;;;;11.03;3.83;;;;;;;;;;5034888;28;20462;-69
2023/07/17 09:22:02;;;;;;;10.50;3.90;;;;;;;;;;5034835;28;20423;-69
2023/07/17 09:24:28;;;;;;;4.20;3.73;;;;;;;;;;5034813;28;20415;-69
2023/07/17 09:26:57;;;;;;;4.67;3.07;;;;;;;;;;5034979;28;20608;-69
2023/07/17 09:29:24;;;;;;;8.77;4.00;;;;;;;;;;5034660;28;20423;-69
2023/07/17 09:31:50;;;;;;;4.20;3.70;;;;;;;;;;5049686;28;20493;-69
2023/07/17 09:34:16;;;;;;;8.17;3.40;;;;;;;;;;5034358;28;20938;-69
2023/07/17 09:36:42;;;;;;;4.60;4.30;;;;;;;;;;5049595;28;20807;-69
2023/07/17 09:39:09;;;;;;;9.33;3.83;;;;;;;;;;5033898;28;20464;-69
2023/07/17 09:41:35;;;;;;;7.33;3.87;;;;;;;;;;5034161;28;20423;-69
2023/07/17 09:44:05;;;;;;;5.93;3.17;;;;;;;;;;5034129;28;20422;-69
2023/07/17 09:46:32;;;;;;;6.77;3.80;;;;;;;;;;5034154;28;20911;-69
2023/07/17 09:48:58;;;;;;;9.30;5.03;;;;;;;;;;5034665;28;20414;-69
2023/07/17 09:51:25;;;;;;;3.53;3.33;;;;;;;;;;5034222;28;20479;-69
2023/07/17 09:53:51;;;;;;;4.50;4.00;;;;;;;;;;5033867;28;20463;-69
2023/07/17 09:56:18;;;;;;;4.23;3.70;;;;;;;;;;5033871;28;20531;-69
2023/07/17 09:58:47;;;;;;;5.93;4.43;;;;;;;;;;5034248;28;20415;-69
2023/07/17 10:01:17;;;;;;;5.27;3.40;;;;;;;;;;5033809;28;20922;-69
2023/07/17 10:03:47;;;;;;;10.50;4.33;;;;;;;;;;5033842;28;20770;-69
2023/07/17 10:06:15;;;;;;;7.37;4.23;;;;;;;;;;5033994;28;20428;-69
2023/07/17 10:08:43;;;;;;;6.50;4.83;;;;;;;;;;5033790;28;20868;-69
2023/07/17 10:11:09;;;;;;;5.03;4.03;;;;;;;;;;5033648;28;20871;-69
2023/07/17 10:13:36;;;;;;;7.23;4.53;;;;;;;;;;5033530;28;20476;-69
2023/07/17 10:16:02;;;;;;;5.00;4.43;;;;;;;;;;5033931;28;20423;-69
2023/07/17 10:18:30;;;;;;;3.93;3.63;;;;;;;;;;5033918;28;20415;-69
2023/07/17 10:20:57;;;;;;;12.50;4.47;;;;;;;;;;5033814;28;20419;-68
2023/07/17 10:23:24;;;;;;;8.73;4.27;;;;;;;;;;5033439;28;20407;-69
2023/07/17 10:25:50;;;;;;;8.17;4.20;;;;;;;;;;5033471;28;20773;-69
2023/07/17 10:28:29;;;;;;;5.40;4.53;;;;;;;;;;5033620;28;20490;-69
2023/07/17 10:30:55;;;;;;;10.00;4.30;;;;;;;;;;5033750;28;20461;-69
2023/07/17 10:33:22;;;;;;;7.53;4.90;;;;;;;;;;5033320;28;20407;-69
2023/07/17 10:35:52;;;;;;;10.30;6.53;;;;;;;;;;5033332;28;20443;-69
2023/07/17 10:38:30;;;;;;;5.87;4.10;;;;;;;;;;5033253;28;20778;-69
2023/07/17 10:41:06;;;;;;;3.80;3.60;;;;;;;;;;5033329;28;20403;-69
2023/07/17 10:43:34;;;;;;;5.20;4.90;;;;;;;;;;5033216;28;20419;-69
2023/07/17 10:46:00;;;;;;;5.17;4.73;;;;;;;;;;5033172;28;20427;-69
2023/07/17 10:48:26;;;;;;;4.13;3.70;;;;;;;;;;5033440;28;20418;-69
2023/07/17 10:50:53;;;;;;;5.03;4.43;;;;;;;;;;5032808;28;20997;-69
2023/07/17 10:53:20;;;;;;;4.97;4.37;;;;;;;;;;5033080;28;20467;-69
2023/07/17 10:55:46;;;;;;;4.40;3.90;;;;;;;;;;5033352;28;20430;-69
2023/07/17 10:58:13;;;;;;;3.40;3.20;;;;;;;;;;5033056;28;20419;-69
2023/07/17 11:00:42;;;;;;;5.20;4.70;;;;;;;;;;5032989;28;20420;-69
2023/07/17 11:03:09;;;;;;;4.43;4.13;;;;;;;;;;5033032;28;20447;-69
2023/07/17 11:05:39;;;;;;;3.93;3.70;;;;;;;;;;5033340;28;20415;-69
2023/07/17 11:08:05;;;;;;;4.47;4.07;;;;;;;;;;5032963;28;20920;-69
2023/07/17 11:10:31;;;;;;;6.53;3.80;;;;;;;;;;5032883;28;20522;-69
2023/07/17 11:13:01;;;;;;;5.73;4.27;;;;;;;;;;5032737;28;20463;-69
2023/07/17 11:15:27;;;;;;;6.93;4.00;;;;;;;;;;5033182;28;20400;-69
2023/07/17 11:17:53;;;;;;;5.03;3.53;;;;;;;;;;5033014;28;20506;-69
2023/07/17 11:20:19;;;;;;;4.07;3.77;;;;;;;;;;5033101;28;20992;-69
2023/07/17 11:22:46;;;;;;;3.90;3.70;;;;;;;;;;5033091;28;20418;-69
2023/07/17 11:25:13;;;;;;;4.87;4.50;;;;;;;;;;5032994;28;20477;-69
2023/07/17 11:27:40;;;;;;;3.97;3.70;;;;;;;;;;5032680;28;20411;-69
2023/07/17 11:30:26;;;;;;;3.93;3.73;;;;;;;;;;5033017;28;20565;-69
2023/07/17 11:32:57;;;;;;;6.03;3.10;;;;;;;;;;5033153;28;20518;-69
2023/07/17 11:35:24;;;;;;;3.40;3.17;;;;;;;;;;5032805;28;20930;-69
2023/07/17 11:37:50;;;;;;;5.60;3.70;;;;;;;;;;5032720;28;20438;-69
2023/07/17 11:40:16;;;;;;;3.30;3.10;;;;;;;;;;5033565;28;20427;-69
2023/07/17 11:42:55;;;;;;;9.80;3.73;;;;;;;;;;5032798;28;20418;-69
2023/07/17 11:45:23;;;;;;;8.53;4.30;;;;;;;;;;5032665;28;20446;-69
2023/07/17 11:47:49;;;;;;;3.13;2.93;;;;;;;;;;5047972;28;20419;-69
2023/07/17 11:50:18;;;;;;;4.23;3.70;;;;;;;;;;5032499;28;20528;-69
2023/07/17 11:52:44;;;;;;;9.10;6.63;;;;;;;;;;5032728;28;20274;-69
2023/07/17 11:55:10;;;;;;;4.53;4.00;;;;;;;;;;5032819;28;20420;-69
2023/07/17 11:57:36;;;;;;;8.57;5.87;;;;;;;;;;5047856;28;20471;-69
2023/07/17 12:00:04;;;;;;;6.50;4.27;;;;;;;;;;5032594;28;20430;-69
2023/07/17 12:02:30;;;;;;;5.37;4.87;;;;;;;;;;5033927;28;20498;-69
2023/07/17 12:05:00;;;;;;;5.07;4.57;;;;;;;;;;5036331;28;20473;-69
2023/07/17 12:07:26;;;;;;;5.47;3.30;;;;;;;;;;5036313;28;20487;-69
2023/07/17 12:09:52;;;;;;;5.40;4.20;;;;;;;;;;5035905;28;20475;-69
2023/07/17 12:12:18;;;;;;;3.93;3.63;;;;;;;;;;5036118;28;20418;-69
2023/07/17 12:14:44;;;;;;;3.30;2.80;;;;;;;;;;5036060;28;20864;-69
2023/07/17 12:17:10;;;;;;;6.40;3.70;;;;;;;;;;5035757;28;20407;-69
2023/07/17 12:19:37;;;;;;;8.00;3.57;;;;;;;;;;5035971;28;20510;-68
2023/07/17 12:22:03;;;;;;;3.50;3.20;;;;;;;;;;5036563;28;20571;-69
2023/07/17 12:24:29;;;;;;;4.63;4.20;;;;;;;;;;5035938;28;20423;-69
2023/07/17 12:26:56;;;;;;;3.50;2.83;;;;;;;;;;5035880;28;20419;-67
2023/07/17 12:32:25;;;;;;;4.70;4.27;;;;;;;;;;5035570;28;20430;-69
2023/07/17 12:34:51;;;;;;;3.60;3.30;;;;;;;;;;5035735;28;20451;-69
2023/07/17 12:37:17;;;;;;;6.53;3.27;;;;;;;;;;5035391;28;20414;-68
2023/07/17 12:39:43;;;;;;;4.67;3.23;;;;;;;;;;5035661;28;20415;-69
2023/07/17 12:42:09;;;;;;;2.97;2.87;;;;;;;;;;5035393;28;20411;-68
2023/07/17 12:44:35;;;;;;;6.50;4.10;;;;;;;;;;5035236;28;20510;-69
2023/07/17 12:47:01;;;;;;;11.93;4.43;;;;;;;;;;5035306;28;20978;-69
2023/07/17 12:49:27;;;;;;;3.60;3.37;;;;;;;;;;5035334;28;20443;-69
2023/07/17 12:51:53;;;;;;;13.27;4.37;;;;;;;;;;5035049;28;20436;-69
2023/07/17 12:54:19;;;;;;;3.33;2.67;;;;;;;;;;5035527;28;20466;-69
2023/07/17 12:56:45;;;;;;;3.80;3.50;;;;;;;;;;5035195;28;20424;-69
2023/07/17 12:59:11;;;;;;;3.87;3.43;;;;;;;;;;5035254;28;20418;-69
2023/07/17 13:01:37;;;;;;;4.20;3.80;;;;;;;;;;5034992;28;20427;-69
2023/07/17 13:04:03;;;;;;;3.93;3.67;;;;;;;;;;5034971;28;20466;-70
2023/07/17 13:06:29;;;;;;;3.90;3.60;;;;;;;;;;5034560;28;20415;-69
2023/07/17 13:08:55;;;;;;;5.00;3.50;;;;;;;;;;5034757;28;20784;-69
2023/07/17 13:11:22;;;;;;;4.17;3.63;;;;;;;;;;5033462;28;20489;-69
2023/07/17 13:13:50;;;;;;;5.20;3.87;;;;;;;;;;5034636;28;20419;-69
2023/07/17 13:16:16;;;;;;;4.07;3.77;;;;;;;;;;5034875;28;20437;-70
2023/07/17 13:18:41;;;;;;;6.10;3.70;;;;;;;;;;5035017;28;20887;-70
2023/07/17 13:21:07;;;;;;;9.17;3.80;;;;;;;;;;5034789;28;20427;-69
2023/07/17 13:23:33;;;;;;;3.87;3.50;;;;;;;;;;5035283;28;20415;-70
2023/07/17 13:25:59;;;;;;;3.60;3.40;;;;;;;;;;5034847;28;20438;-69
2023/07/17 13:28:25;;;;;;;6.60;3.97;;;;;;;;;;5034770;28;20411;-69
2023/07/17 13:30:51;;;;;;;3.50;3.20;;;;;;;;;;5034370;28;21008;-69
2023/07/17 13:33:17;;;;;;;4.53;3.27;;;;;;;;;;5034423;28;20423;-69
2023/07/17 13:35:43;;;;;;;4.17;3.77;;;;;;;;;;5034647;28;20184;-69
2023/07/17 13:38:09;;;;;;;6.33;3.53;;;;;;;;;;5034561;28;20176;-69
2023/07/17 13:40:36;;;;;;;3.87;3.67;;;;;;;;;;5034701;28;20903;-70
2023/07/17 13:43:02;;;;;;;3.97;3.43;;;;;;;;;;5034157;28;20857;-69
2023/07/17 13:45:28;;;;;;;3.10;2.93;;;;;;;;;;5034417;28;20926;-69
2023/07/17 13:47:54;;;;;;;5.23;3.50;;;;;;;;;;5034309;28;20521;-69
2023/07/17 13:50:21;;;;;;;6.40;4.13;;;;;;;;;;5034303;28;20475;-69
2023/07/17 13:52:47;;;;;;;9.50;4.30;;;;;;;;;;5033754;28;20978;-69
2023/07/17 13:55:13;;;;;;;6.50;3.70;;;;;;;;;;5049188;28;20966;-69
2023/07/17 13:57:39;;;;;;;5.33;3.73;;;;;;;;;;5033780;28;20970;-69
2023/07/17 14:00:05;;;;;;;3.37;2.80;;;;;;;;;;5033841;28;20473;-69
2023/07/17 14:02:31;;;;;;;3.80;3.60;;;;;;;;;;5034316;28;20425;-69
2023/07/17 14:04:57;;;;;;;3.53;3.10;;;;;;;;;;5033860;28;20510;-69
2023/07/17 14:07:23;;;;;;;5.50;3.23;;;;;;;;;;5033653;28;20420;-69
2023/07/17 14:09:49;;;;;;;7.57;3.10;;;;;;;;;;5033643;28;20458;-69
2023/07/17 14:12:15;;;;;;;4.03;3.60;;;;;;;;;;5033608;28;20427;-69
2023/07/17 14:14:41;;;;;;;3.20;3.00;;;;;;;;;;5033621;28;20783;-69
2023/07/17 14:17:07;;;;;;;3.10;2.83;;;;;;;;;;5033554;28;20431;-69
2023/07/17 14:19:33;;;;;;;4.07;3.73;;;;;;;;;;5034051;28;20915;-69
2023/07/17 14:21:59;;;;;;;6.57;3.40;;;;;;;;;;5033399;28;20506;-69
2023/07/17 14:24:25;;;;;;;5.70;4.90;;;;;;;;;;5033187;28;20431;-69
2023/07/17 14:26:51;;;;;;;5.27;3.20;;;;;;;;;;5033449;28;20576;-69
2023/07/17 14:32:20;;;;;;;12.43;3.67;;;;;;;;;;5033419;28;20538;-69
2023/07/17 14:34:46;;;;;;;3.50;3.40;;;;;;;;;;5033590;28;20451;-69
2023/07/17 14:37:12;;;;;;;4.17;3.80;;;;;;;;;;5033265;28;20449;-69
2023/07/17 14:39:38;;;;;;;5.70;2.83;;;;;;;;;;5033280;28;20424;-69
2023/07/17 14:42:04;;;;;;;6.30;2.80;;;;;;;;;;5033142;28;20417;-69
2023/07/17 14:44:30;;;;;;;2.93;2.83;;;;;;;;;;5033137;28;20419;-70
2023/07/17 14:46:56;;;;;;;2.87;2.77;;;;;;;;;;5033111;28;20411;-69
2023/07/17 14:49:24;;;;;;;3.50;3.40;;;;;;;;;;5033249;28;20419;-69
2023/07/17 14:51:50;;;;;;;4.00;3.60;;;;;;;;;;5033280;28;20432;-69
2023/07/17 14:54:16;;;;;;;2.93;2.83;;;;;;;;;;5032844;28;20554;-69